sensor_id;sensor_type;location;lat;lon;timestamp;P1;durP1;ratioP1;P2;durP2;ratioP2
211;SDS011;16228;48.800;9.002;2023-05-02T00:00:19;11.43;;;10.43;;
211;SDS011;16228;48.800;9.002;2023-05-02T00:02:46;12.80;;;10.90;;
211;SDS011;16228;48.800;9.002;2023-05-02T00:05:13;11.50;;;10.30;;
211;SDS011;16228;48.800;9.002;2023-05-02T00:07:41;16.00;;;14.13;;
211;SDS011;16228;48.800;9.002;2023-05-02T00:10:08;13.80;;;10.80;;
211;SDS011;16228;48.800;9.002;2023-05-02T00:12:36;13.57;;;9.47;;
211;SDS011;16228;48.800;9.002;2023-05-02T00:15:04;11.20;;;8.60;;
211;SDS011;16228;48.800;9.002;2023-05-02T00:17:31;14.50;;;11.77;;
211;SDS011;16228;48.800;9.002;2023-05-02T00:19:58;13.23;;;10.30;;
211;SDS011;16228;48.800;9.002;2023-05-02T00:22:25;19.97;;;14.63;;
211;SDS011;16228;48.800;9.002;2023-05-02T00:24:54;14.73;;;10.83;;
211;SDS011;16228;48.800;9.002;2023-05-02T00:27:22;22.77;;;16.30;;
211;SDS011;16228;48.800;9.002;2023-05-02T00:29:51;20.33;;;15.60;;
211;SDS011;16228;48.800;9.002;2023-05-02T00:32:19;22.83;;;16.37;;
211;SDS011;16228;48.800;9.002;2023-05-02T00:34:46;27.10;;;20.87;;
211;SDS011;16228;48.800;9.002;2023-05-02T00:37:13;29.23;;;21.53;;
211;SDS011;16228;48.800;9.002;2023-05-02T00:39:40;32.43;;;22.60;;
211;SDS011;16228;48.800;9.002;2023-05-02T00:42:07;20.77;;;15.93;;
211;SDS011;16228;48.800;9.002;2023-05-02T00:44:34;20.37;;;17.07;;
211;SDS011;16228;48.800;9.002;2023-05-02T00:47:02;18.57;;;13.87;;
211;SDS011;16228;48.800;9.002;2023-05-02T00:49:29;15.97;;;12.90;;
211;SDS011;16228;48.800;9.002;2023-05-02T00:51:57;15.73;;;12.83;;
211;SDS011;16228;48.800;9.002;2023-05-02T00:54:24;17.43;;;14.80;;
211;SDS011;16228;48.800;9.002;2023-05-02T00:56:51;18.00;;;14.43;;
211;SDS011;16228;48.800;9.002;2023-05-02T00:59:18;20.17;;;15.93;;
211;SDS011;16228;48.800;9.002;2023-05-02T01:01:49;14.53;;;11.10;;
211;SDS011;16228;48.800;9.002;2023-05-02T01:04:30;12.63;;;11.10;;
211;SDS011;16228;48.800;9.002;2023-05-02T01:07:08;19.43;;;15.70;;
211;SDS011;16228;48.800;9.002;2023-05-02T01:09:47;15.67;;;12.77;;
211;SDS011;16228;48.800;9.002;2023-05-02T01:12:25;12.20;;;10.97;;
211;SDS011;16228;48.800;9.002;2023-05-02T01:14:54;14.27;;;12.83;;
211;SDS011;16228;48.800;9.002;2023-05-02T01:17:25;13.60;;;12.07;;
211;SDS011;16228;48.800;9.002;2023-05-02T01:19:58;10.00;;;9.00;;
211;SDS011;16228;48.800;9.002;2023-05-02T01:22:28;9.83;;;8.93;;
211;SDS011;16228;48.800;9.002;2023-05-02T01:24:59;8.97;;;8.17;;
211;SDS011;16228;48.800;9.002;2023-05-02T01:27:35;12.57;;;11.27;;
211;SDS011;16228;48.800;9.002;2023-05-02T01:30:10;8.00;;;7.23;;
211;SDS011;16228;48.800;9.002;2023-05-02T01:32:40;12.77;;;11.40;;
211;SDS011;16228;48.800;9.002;2023-05-02T01:35:10;11.43;;;10.37;;
211;SDS011;16228;48.800;9.002;2023-05-02T01:37:40;11.47;;;10.40;;
211;SDS011;16228;48.800;9.002;2023-05-02T01:40:09;12.17;;;9.60;;
211;SDS011;16228;48.800;9.002;2023-05-02T01:42:37;10.93;;;9.90;;
211;SDS011;16228;48.800;9.002;2023-05-02T01:45:07;17.30;;;14.30;;
211;SDS011;16228;48.800;9.002;2023-05-02T01:47:37;16.27;;;14.57;;
211;SDS011;16228;48.800;9.002;2023-05-02T01:50:07;11.77;;;10.57;;
211;SDS011;16228;48.800;9.002;2023-05-02T01:52:37;12.83;;;10.87;;
211;SDS011;16228;48.800;9.002;2023-05-02T01:55:05;15.67;;;12.17;;
211;SDS011;16228;48.800;9.002;2023-05-02T01:57:38;10.73;;;9.63;;
211;SDS011;16228;48.800;9.002;2023-05-02T02:00:09;16.33;;;13.47;;
211;SDS011;16228;48.800;9.002;2023-05-02T02:02:37;13.57;;;12.20;;
211;SDS011;16228;48.800;9.002;2023-05-02T02:05:07;14.10;;;12.70;;
211;SDS011;16228;48.800;9.002;2023-05-02T02:07:35;12.07;;;10.97;;
211;SDS011;16228;48.800;9.002;2023-05-02T02:10:03;9.97;;;9.07;;
211;SDS011;16228;48.800;9.002;2023-05-02T02:12:31;10.73;;;9.73;;
211;SDS011;16228;48.800;9.002;2023-05-02T02:15:05;9.80;;;8.87;;
211;SDS011;16228;48.800;9.002;2023-05-02T02:17:42;14.47;;;12.67;;
211;SDS011;16228;48.800;9.002;2023-05-02T02:20:12;11.13;;;9.87;;
211;SDS011;16228;48.800;9.002;2023-05-02T02:22:42;13.13;;;11.93;;
211;SDS011;16228;48.800;9.002;2023-05-02T02:25:11;16.73;;;12.53;;
211;SDS011;16228;48.800;9.002;2023-05-02T02:27:40;14.70;;;12.90;;
211;SDS011;16228;48.800;9.002;2023-05-02T02:30:07;12.17;;;10.97;;
211;SDS011;16228;48.800;9.002;2023-05-02T02:32:36;10.07;;;8.57;;
211;SDS011;16228;48.800;9.002;2023-05-02T02:35:04;14.70;;;12.40;;
211;SDS011;16228;48.800;9.002;2023-05-02T02:37:32;10.20;;;9.30;;
211;SDS011;16228;48.800;9.002;2023-05-02T02:40:04;14.53;;;12.33;;
211;SDS011;16228;48.800;9.002;2023-05-02T02:42:38;13.63;;;11.60;;
211;SDS011;16228;48.800;9.002;2023-05-02T02:45:19;17.97;;;13.60;;
211;SDS011;16228;48.800;9.002;2023-05-02T02:47:53;7.77;;;7.10;;
211;SDS011;16228;48.800;9.002;2023-05-02T02:50:29;11.73;;;10.70;;
211;SDS011;16228;48.800;9.002;2023-05-02T02:53:03;10.77;;;9.73;;
211;SDS011;16228;48.800;9.002;2023-05-02T02:55:35;12.37;;;10.57;;
211;SDS011;16228;48.800;9.002;2023-05-02T02:58:10;10.97;;;10.00;;
211;SDS011;16228;48.800;9.002;2023-05-02T03:00:46;11.13;;;10.07;;
211;SDS011;16228;48.800;9.002;2023-05-02T03:03:14;13.27;;;11.93;;
211;SDS011;16228;48.800;9.002;2023-05-02T03:05:44;12.20;;;11.00;;
211;SDS011;16228;48.800;9.002;2023-05-02T03:08:11;13.70;;;12.40;;
211;SDS011;16228;48.800;9.002;2023-05-02T03:10:38;15.10;;;13.40;;
211;SDS011;16228;48.800;9.002;2023-05-02T03:13:06;13.47;;;12.07;;
211;SDS011;16228;48.800;9.002;2023-05-02T03:15:41;17.33;;;14.07;;
211;SDS011;16228;48.800;9.002;2023-05-02T03:18:33;12.87;;;11.57;;
211;SDS011;16228;48.800;9.002;2023-05-02T03:21:00;12.57;;;11.33;;
211;SDS011;16228;48.800;9.002;2023-05-02T03:23:27;17.53;;;13.90;;
211;SDS011;16228;48.800;9.002;2023-05-02T03:25:54;14.27;;;12.83;;
211;SDS011;16228;48.800;9.002;2023-05-02T03:28:22;11.40;;;10.30;;
211;SDS011;16228;48.800;9.002;2023-05-02T03:30:49;14.90;;;13.27;;
211;SDS011;16228;48.800;9.002;2023-05-02T03:33:15;15.73;;;13.23;;
211;SDS011;16228;48.800;9.002;2023-05-02T03:35:44;18.63;;;11.27;;
211;SDS011;16228;48.800;9.002;2023-05-02T03:38:11;9.20;;;8.30;;
211;SDS011;16228;48.800;9.002;2023-05-02T03:40:38;14.40;;;13.00;;
211;SDS011;16228;48.800;9.002;2023-05-02T03:43:05;15.63;;;14.10;;
211;SDS011;16228;48.800;9.002;2023-05-02T03:45:32;14.70;;;13.23;;
211;SDS011;16228;48.800;9.002;2023-05-02T03:48:00;8.80;;;7.90;;
211;SDS011;16228;48.800;9.002;2023-05-02T03:50:27;15.23;;;13.70;;
211;SDS011;16228;48.800;9.002;2023-05-02T03:52:55;8.10;;;7.40;;
211;SDS011;16228;48.800;9.002;2023-05-02T03:55:22;10.67;;;9.77;;
211;SDS011;16228;48.800;9.002;2023-05-02T03:57:49;15.40;;;13.77;;
211;SDS011;16228;48.800;9.002;2023-05-02T04:00:16;14.20;;;12.80;;
211;SDS011;16228;48.800;9.002;2023-05-02T04:02:43;9.60;;;8.20;;
211;SDS011;16228;48.800;9.002;2023-05-02T04:05:10;13.20;;;11.97;;
211;SDS011;16228;48.800;9.002;2023-05-02T04:07:37;14.03;;;12.60;;
211;SDS011;16228;48.800;9.002;2023-05-02T04:10:06;10.13;;;9.23;;
211;SDS011;16228;48.800;9.002;2023-05-02T04:12:40;14.57;;;13.17;;
211;SDS011;16228;48.800;9.002;2023-05-02T04:15:07;12.27;;;11.07;;
211;SDS011;16228;48.800;9.002;2023-05-02T04:17:35;16.50;;;14.87;;
211;SDS011;16228;48.800;9.002;2023-05-02T04:20:02;12.57;;;11.33;;
211;SDS011;16228;48.800;9.002;2023-05-02T04:22:30;13.70;;;12.33;;
211;SDS011;16228;48.800;9.002;2023-05-02T04:24:57;12.67;;;11.57;;
211;SDS011;16228;48.800;9.002;2023-05-02T04:27:26;14.43;;;13.03;;
211;SDS011;16228;48.800;9.002;2023-05-02T04:29:53;13.37;;;12.10;;
211;SDS011;16228;48.800;9.002;2023-05-02T04:32:20;11.07;;;10.17;;
211;SDS011;16228;48.800;9.002;2023-05-02T04:34:47;10.53;;;9.63;;
211;SDS011;16228;48.800;9.002;2023-05-02T04:37:14;14.70;;;13.30;;
211;SDS011;16228;48.800;9.002;2023-05-02T04:39:41;12.37;;;11.07;;
211;SDS011;16228;48.800;9.002;2023-05-02T04:42:08;11.13;;;10.07;;
211;SDS011;16228;48.800;9.002;2023-05-02T04:44:37;16.47;;;14.23;;
211;SDS011;16228;48.800;9.002;2023-05-02T04:47:04;13.93;;;12.63;;
211;SDS011;16228;48.800;9.002;2023-05-02T04:49:31;15.47;;;13.93;;
211;SDS011;16228;48.800;9.002;2023-05-02T04:51:58;14.23;;;12.73;;
211;SDS011;16228;48.800;9.002;2023-05-02T04:54:24;16.73;;;15.00;;
211;SDS011;16228;48.800;9.002;2023-05-02T04:56:52;13.33;;;12.03;;
211;SDS011;16228;48.800;9.002;2023-05-02T04:59:19;11.50;;;10.50;;
211;SDS011;16228;48.800;9.002;2023-05-02T05:01:47;15.47;;;13.93;;
211;SDS011;16228;48.800;9.002;2023-05-02T05:04:14;13.07;;;11.97;;
211;SDS011;16228;48.800;9.002;2023-05-02T05:06:41;14.90;;;13.43;;
211;SDS011;16228;48.800;9.002;2023-05-02T05:09:08;10.97;;;9.90;;
211;SDS011;16228;48.800;9.002;2023-05-02T05:11:35;12.70;;;11.50;;
211;SDS011;16228;48.800;9.002;2023-05-02T05:14:03;13.60;;;12.33;;
211;SDS011;16228;48.800;9.002;2023-05-02T05:16:30;12.43;;;11.13;;
211;SDS011;16228;48.800;9.002;2023-05-02T05:18:58;13.53;;;11.93;;
211;SDS011;16228;48.800;9.002;2023-05-02T05:21:25;9.50;;;8.70;;
211;SDS011;16228;48.800;9.002;2023-05-02T05:23:52;11.57;;;10.50;;
211;SDS011;16228;48.800;9.002;2023-05-02T05:26:19;13.73;;;12.33;;
211;SDS011;16228;48.800;9.002;2023-05-02T05:28:47;15.23;;;13.53;;
211;SDS011;16228;48.800;9.002;2023-05-02T05:31:15;12.30;;;11.00;;
211;SDS011;16228;48.800;9.002;2023-05-02T05:33:42;15.30;;;13.80;;
211;SDS011;16228;48.800;9.002;2023-05-02T05:36:11;12.97;;;11.77;;
211;SDS011;16228;48.800;9.002;2023-05-02T05:38:39;11.40;;;10.40;;
211;SDS011;16228;48.800;9.002;2023-05-02T05:41:06;12.70;;;11.50;;
211;SDS011;16228;48.800;9.002;2023-05-02T05:43:33;12.97;;;11.33;;
211;SDS011;16228;48.800;9.002;2023-05-02T05:46:00;13.80;;;12.50;;
211;SDS011;16228;48.800;9.002;2023-05-02T05:48:27;15.87;;;14.27;;
211;SDS011;16228;48.800;9.002;2023-05-02T05:50:54;14.07;;;12.67;;
211;SDS011;16228;48.800;9.002;2023-05-02T05:53:23;13.80;;;12.50;;
211;SDS011;16228;48.800;9.002;2023-05-02T05:55:50;15.90;;;14.37;;
211;SDS011;16228;48.800;9.002;2023-05-02T05:58:17;12.33;;;11.23;;
211;SDS011;16228;48.800;9.002;2023-05-02T06:00:43;13.13;;;11.83;;
211;SDS011;16228;48.800;9.002;2023-05-02T06:03:11;12.03;;;10.93;;
211;SDS011;16228;48.800;9.002;2023-05-02T06:05:38;13.10;;;11.77;;
211;SDS011;16228;48.800;9.002;2023-05-02T06:08:05;13.37;;;12.03;;
211;SDS011;16228;48.800;9.002;2023-05-02T06:10:34;11.40;;;10.33;;
211;SDS011;16228;48.800;9.002;2023-05-02T06:13:01;13.03;;;11.87;;
211;SDS011;16228;48.800;9.002;2023-05-02T06:15:27;14.60;;;13.40;;
211;SDS011;16228;48.800;9.002;2023-05-02T06:17:54;13.37;;;12.07;;
211;SDS011;16228;48.800;9.002;2023-05-02T06:20:21;13.87;;;12.60;;
211;SDS011;16228;48.800;9.002;2023-05-02T06:22:48;13.97;;;12.67;;
211;SDS011;16228;48.800;9.002;2023-05-02T06:25:15;15.10;;;13.67;;
211;SDS011;16228;48.800;9.002;2023-05-02T06:27:44;15.03;;;13.63;;
211;SDS011;16228;48.800;9.002;2023-05-02T06:30:11;13.03;;;11.83;;
211;SDS011;16228;48.800;9.002;2023-05-02T06:32:38;15.47;;;13.80;;
211;SDS011;16228;48.800;9.002;2023-05-02T06:35:06;17.07;;;15.30;;
211;SDS011;16228;48.800;9.002;2023-05-02T06:37:34;12.97;;;11.77;;
211;SDS011;16228;48.800;9.002;2023-05-02T06:40:01;17.10;;;15.50;;
211;SDS011;16228;48.800;9.002;2023-05-02T06:42:29;15.90;;;14.40;;
211;SDS011;16228;48.800;9.002;2023-05-02T06:44:57;17.30;;;15.47;;
211;SDS011;16228;48.800;9.002;2023-05-02T06:47:24;16.13;;;14.53;;
211;SDS011;16228;48.800;9.002;2023-05-02T06:49:53;19.80;;;17.93;;
211;SDS011;16228;48.800;9.002;2023-05-02T06:52:21;19.83;;;17.90;;
211;SDS011;16228;48.800;9.002;2023-05-02T06:54:48;18.80;;;17.10;;
211;SDS011;16228;48.800;9.002;2023-05-02T06:57:15;18.03;;;16.23;;
211;SDS011;16228;48.800;9.002;2023-05-02T06:59:42;18.90;;;17.10;;
211;SDS011;16228;48.800;9.002;2023-05-02T07:02:10;21.80;;;19.70;;
211;SDS011;16228;48.800;9.002;2023-05-02T07:04:37;20.63;;;18.60;;
211;SDS011;16228;48.800;9.002;2023-05-02T07:07:04;17.27;;;15.67;;
211;SDS011;16228;48.800;9.002;2023-05-02T07:09:31;18.67;;;16.87;;
211;SDS011;16228;48.800;9.002;2023-05-02T07:11:58;19.67;;;17.77;;
211;SDS011;16228;48.800;9.002;2023-05-02T07:14:26;23.27;;;20.77;;
211;SDS011;16228;48.800;9.002;2023-05-02T07:16:53;20.17;;;18.20;;
211;SDS011;16228;48.800;9.002;2023-05-02T07:19:22;20.17;;;18.07;;
211;SDS011;16228;48.800;9.002;2023-05-02T07:21:49;22.23;;;20.03;;
211;SDS011;16228;48.800;9.002;2023-05-02T07:24:16;23.57;;;21.17;;
211;SDS011;16228;48.800;9.002;2023-05-02T07:26:43;21.43;;;19.13;;
211;SDS011;16228;48.800;9.002;2023-05-02T07:29:10;21.70;;;19.70;;
211;SDS011;16228;48.800;9.002;2023-05-02T07:31:36;23.23;;;21.03;;
211;SDS011;16228;48.800;9.002;2023-05-02T07:34:03;21.93;;;19.83;;
211;SDS011;16228;48.800;9.002;2023-05-02T07:36:32;24.33;;;21.83;;
211;SDS011;16228;48.800;9.002;2023-05-02T07:38:59;23.17;;;21.07;;
211;SDS011;16228;48.800;9.002;2023-05-02T07:41:26;23.27;;;21.07;;
211;SDS011;16228;48.800;9.002;2023-05-02T07:43:53;23.93;;;21.50;;
211;SDS011;16228;48.800;9.002;2023-05-02T07:46:21;21.40;;;19.27;;
211;SDS011;16228;48.800;9.002;2023-05-02T07:48:48;25.73;;;23.33;;
211;SDS011;16228;48.800;9.002;2023-05-02T07:51:15;26.10;;;23.53;;
211;SDS011;16228;48.800;9.002;2023-05-02T07:53:45;23.23;;;21.03;;
211;SDS011;16228;48.800;9.002;2023-05-02T07:56:17;24.87;;;22.47;;
211;SDS011;16228;48.800;9.002;2023-05-02T07:58:44;24.50;;;22.17;;
211;SDS011;16228;48.800;9.002;2023-05-02T08:01:11;22.90;;;20.50;;
211;SDS011;16228;48.800;9.002;2023-05-02T08:03:38;22.90;;;20.63;;
211;SDS011;16228;48.800;9.002;2023-05-02T08:06:05;24.03;;;21.53;;
211;SDS011;16228;48.800;9.002;2023-05-02T08:08:33;23.70;;;21.50;;
211;SDS011;16228;48.800;9.002;2023-05-02T08:11:02;25.40;;;22.97;;
211;SDS011;16228;48.800;9.002;2023-05-02T08:13:29;24.57;;;21.97;;
211;SDS011;16228;48.800;9.002;2023-05-02T08:15:57;24.93;;;22.47;;
211;SDS011;16228;48.800;9.002;2023-05-02T08:18:24;24.30;;;21.93;;
211;SDS011;16228;48.800;9.002;2023-05-02T08:20:51;23.13;;;20.93;;
211;SDS011;16228;48.800;9.002;2023-05-02T08:23:20;24.00;;;21.70;;
211;SDS011;16228;48.800;9.002;2023-05-02T08:25:47;24.77;;;22.30;;
211;SDS011;16228;48.800;9.002;2023-05-02T08:28:15;25.17;;;22.63;;
211;SDS011;16228;48.800;9.002;2023-05-02T08:30:43;24.70;;;22.17;;
211;SDS011;16228;48.800;9.002;2023-05-02T08:33:10;26.70;;;24.00;;
211;SDS011;16228;48.800;9.002;2023-05-02T08:35:37;21.80;;;19.70;;
211;SDS011;16228;48.800;9.002;2023-05-02T08:38:04;22.57;;;20.37;;
211;SDS011;16228;48.800;9.002;2023-05-02T08:40:31;20.33;;;18.30;;
211;SDS011;16228;48.800;9.002;2023-05-02T08:43:02;22.27;;;20.10;;
211;SDS011;16228;48.800;9.002;2023-05-02T08:45:31;24.33;;;21.33;;
211;SDS011;16228;48.800;9.002;2023-05-02T08:48:04;22.43;;;20.23;;
211;SDS011;16228;48.800;9.002;2023-05-02T08:50:35;22.93;;;20.73;;
211;SDS011;16228;48.800;9.002;2023-05-02T08:53:03;23.10;;;20.70;;
211;SDS011;16228;48.800;9.002;2023-05-02T08:55:31;24.40;;;21.87;;
211;SDS011;16228;48.800;9.002;2023-05-02T08:58:00;21.50;;;19.30;;
211;SDS011;16228;48.800;9.002;2023-05-02T09:00:28;20.10;;;18.13;;
211;SDS011;16228;48.800;9.002;2023-05-02T09:02:59;21.03;;;19.07;;
211;SDS011;16228;48.800;9.002;2023-05-02T09:05:32;22.90;;;20.63;;
211;SDS011;16228;48.800;9.002;2023-05-02T09:08:06;20.97;;;19.07;;
211;SDS011;16228;48.800;9.002;2023-05-02T09:10:33;22.17;;;20.07;;
211;SDS011;16228;48.800;9.002;2023-05-02T09:16:00;23.27;;;20.97;;
211;SDS011;16228;48.800;9.002;2023-05-02T09:18:30;27.03;;;24.47;;
211;SDS011;16228;48.800;9.002;2023-05-02T09:20:58;26.90;;;24.07;;
211;SDS011;16228;48.800;9.002;2023-05-02T09:23:33;22.30;;;19.97;;
211;SDS011;16228;48.800;9.002;2023-05-02T09:26:01;20.63;;;18.63;;
211;SDS011;16228;48.800;9.002;2023-05-02T09:28:40;18.83;;;17.13;;
211;SDS011;16228;48.800;9.002;2023-05-02T09:31:08;16.87;;;15.30;;
211;SDS011;16228;48.800;9.002;2023-05-02T09:33:38;16.93;;;15.27;;
211;SDS011;16228;48.800;9.002;2023-05-02T09:36:05;19.07;;;17.17;;
211;SDS011;16228;48.800;9.002;2023-05-02T09:38:34;18.63;;;16.83;;
211;SDS011;16228;48.800;9.002;2023-05-02T09:41:01;18.27;;;16.50;;
211;SDS011;16228;48.800;9.002;2023-05-02T09:43:29;16.57;;;14.97;;
211;SDS011;16228;48.800;9.002;2023-05-02T09:45:57;16.57;;;15.03;;
211;SDS011;16228;48.800;9.002;2023-05-02T09:48:26;16.20;;;14.70;;
211;SDS011;16228;48.800;9.002;2023-05-02T09:50:55;16.53;;;15.03;;
211;SDS011;16228;48.800;9.002;2023-05-02T09:53:25;14.60;;;13.30;;
211;SDS011;16228;48.800;9.002;2023-05-02T09:56:00;14.90;;;13.30;;
211;SDS011;16228;48.800;9.002;2023-05-02T09:58:28;13.70;;;12.33;;
211;SDS011;16228;48.800;9.002;2023-05-02T10:00:56;13.53;;;12.33;;
211;SDS011;16228;48.800;9.002;2023-05-02T10:03:24;13.77;;;12.37;;
211;SDS011;16228;48.800;9.002;2023-05-02T10:05:51;15.90;;;14.37;;
211;SDS011;16228;48.800;9.002;2023-05-02T10:08:21;12.73;;;11.63;;
211;SDS011;16228;48.800;9.002;2023-05-02T10:10:51;13.83;;;12.53;;
211;SDS011;16228;48.800;9.002;2023-05-02T10:13:20;10.73;;;9.83;;
211;SDS011;16228;48.800;9.002;2023-05-02T10:15:49;13.20;;;12.07;;
211;SDS011;16228;48.800;9.002;2023-05-02T10:18:25;13.63;;;12.40;;
211;SDS011;16228;48.800;9.002;2023-05-02T10:20:59;12.50;;;11.33;;
211;SDS011;16228;48.800;9.002;2023-05-02T10:23:32;13.80;;;12.60;;
211;SDS011;16228;48.800;9.002;2023-05-02T10:26:00;13.40;;;12.03;;
211;SDS011;16228;48.800;9.002;2023-05-02T10:28:28;13.40;;;12.20;;
211;SDS011;16228;48.800;9.002;2023-05-02T10:30:56;15.30;;;13.80;;
211;SDS011;16228;48.800;9.002;2023-05-02T10:33:25;14.47;;;12.93;;
211;SDS011;16228;48.800;9.002;2023-05-02T10:35:54;13.70;;;12.30;;
211;SDS011;16228;48.800;9.002;2023-05-02T10:38:21;12.37;;;11.27;;
211;SDS011;16228;48.800;9.002;2023-05-02T10:40:50;13.03;;;11.73;;
211;SDS011;16228;48.800;9.002;2023-05-02T10:43:22;14.33;;;13.00;;
211;SDS011;16228;48.800;9.002;2023-05-02T10:45:51;12.70;;;11.60;;
211;SDS011;16228;48.800;9.002;2023-05-02T10:48:19;13.83;;;12.53;;
211;SDS011;16228;48.800;9.002;2023-05-02T10:50:48;15.20;;;12.50;;
211;SDS011;16228;48.800;9.002;2023-05-02T10:53:22;14.53;;;13.23;;
211;SDS011;16228;48.800;9.002;2023-05-02T10:58:51;13.77;;;12.53;;
211;SDS011;16228;48.800;9.002;2023-05-02T11:04:13;13.63;;;12.43;;
211;SDS011;16228;48.800;9.002;2023-05-02T11:09:45;16.40;;;12.80;;
211;SDS011;16228;48.800;9.002;2023-05-02T11:12:13;15.50;;;14.00;;
211;SDS011;16228;48.800;9.002;2023-05-02T11:15:11;16.10;;;14.50;;
211;SDS011;16228;48.800;9.002;2023-05-02T11:20:24;16.67;;;14.97;;
211;SDS011;16228;48.800;9.002;2023-05-02T11:22:51;16.00;;;14.33;;
211;SDS011;16228;48.800;9.002;2023-05-02T11:25:38;15.03;;;13.53;;
211;SDS011;16228;48.800;9.002;2023-05-02T11:31:06;16.73;;;15.33;;
211;SDS011;16228;48.800;9.002;2023-05-02T11:33:33;15.40;;;14.10;;
211;SDS011;16228;48.800;9.002;2023-05-02T11:36:01;14.50;;;13.20;;
211;SDS011;16228;48.800;9.002;2023-05-02T11:38:34;17.43;;;15.77;;
211;SDS011;16228;48.800;9.002;2023-05-02T11:41:03;18.37;;;16.33;;
211;SDS011;16228;48.800;9.002;2023-05-02T11:43:31;17.80;;;16.20;;
211;SDS011;16228;48.800;9.002;2023-05-02T11:45:58;14.90;;;13.50;;
211;SDS011;16228;48.800;9.002;2023-05-02T11:48:26;16.07;;;14.67;;
211;SDS011;16228;48.800;9.002;2023-05-02T11:50:54;15.40;;;14.07;;
211;SDS011;16228;48.800;9.002;2023-05-02T11:53:22;16.53;;;15.17;;
211;SDS011;16228;48.800;9.002;2023-05-02T11:55:51;15.90;;;14.40;;
211;SDS011;16228;48.800;9.002;2023-05-02T11:58:22;14.20;;;12.83;;
211;SDS011;16228;48.800;9.002;2023-05-02T12:00:51;15.60;;;14.30;;
211;SDS011;16228;48.800;9.002;2023-05-02T12:03:22;15.93;;;14.63;;
211;SDS011;16228;48.800;9.002;2023-05-02T12:05:52;15.93;;;14.53;;
211;SDS011;16228;48.800;9.002;2023-05-02T12:08:24;16.43;;;14.93;;
211;SDS011;16228;48.800;9.002;2023-05-02T12:10:52;17.73;;;16.17;;
211;SDS011;16228;48.800;9.002;2023-05-02T12:13:21;18.33;;;16.63;;
211;SDS011;16228;48.800;9.002;2023-05-02T12:15:51;18.77;;;16.87;;
211;SDS011;16228;48.800;9.002;2023-05-02T12:18:20;21.77;;;16.63;;
211;SDS011;16228;48.800;9.002;2023-05-02T12:20:49;18.17;;;16.37;;
211;SDS011;16228;48.800;9.002;2023-05-02T12:23:17;20.57;;;18.57;;
211;SDS011;16228;48.800;9.002;2023-05-02T12:25:45;21.67;;;19.60;;
211;SDS011;16228;48.800;9.002;2023-05-02T12:28:13;23.17;;;20.77;;
211;SDS011;16228;48.800;9.002;2023-05-02T12:30:43;23.07;;;20.87;;
211;SDS011;16228;48.800;9.002;2023-05-02T12:33:13;24.53;;;22.27;;
211;SDS011;16228;48.800;9.002;2023-05-02T12:35:41;20.80;;;18.60;;
211;SDS011;16228;48.800;9.002;2023-05-02T12:38:10;19.27;;;17.47;;
211;SDS011;16228;48.800;9.002;2023-05-02T12:40:45;18.37;;;16.57;;
211;SDS011;16228;48.800;9.002;2023-05-02T12:43:13;18.10;;;16.37;;
211;SDS011;16228;48.800;9.002;2023-05-02T12:45:41;17.63;;;16.10;;
211;SDS011;16228;48.800;9.002;2023-05-02T12:48:19;15.17;;;13.80;;
211;SDS011;16228;48.800;9.002;2023-05-02T12:50:48;17.03;;;15.53;;
211;SDS011;16228;48.800;9.002;2023-05-02T12:53:15;15.50;;;14.03;;
211;SDS011;16228;48.800;9.002;2023-05-02T12:55:42;15.73;;;14.37;;
211;SDS011;16228;48.800;9.002;2023-05-02T12:58:10;17.03;;;15.33;;
211;SDS011;16228;48.800;9.002;2023-05-02T13:00:39;14.90;;;13.40;;
211;SDS011;16228;48.800;9.002;2023-05-02T13:03:07;16.33;;;14.77;;
211;SDS011;16228;48.800;9.002;2023-05-02T13:05:35;16.77;;;14.87;;
211;SDS011;16228;48.800;9.002;2023-05-02T13:08:03;17.13;;;15.53;;
211;SDS011;16228;48.800;9.002;2023-05-02T13:10:30;16.90;;;15.30;;
211;SDS011;16228;48.800;9.002;2023-05-02T13:12:57;17.17;;;15.37;;
211;SDS011;16228;48.800;9.002;2023-05-02T13:15:25;14.97;;;13.57;;
211;SDS011;16228;48.800;9.002;2023-05-02T13:17:52;13.27;;;12.07;;
211;SDS011;16228;48.800;9.002;2023-05-02T13:20:19;15.03;;;13.63;;
211;SDS011;16228;48.800;9.002;2023-05-02T13:22:48;13.53;;;12.33;;
211;SDS011;16228;48.800;9.002;2023-05-02T13:25:15;13.00;;;11.80;;
211;SDS011;16228;48.800;9.002;2023-05-02T13:27:41;13.00;;;11.80;;
211;SDS011;16228;48.800;9.002;2023-05-02T13:30:10;13.00;;;11.77;;
211;SDS011;16228;48.800;9.002;2023-05-02T13:32:37;13.23;;;12.03;;
211;SDS011;16228;48.800;9.002;2023-05-02T13:35:05;15.00;;;13.70;;
211;SDS011;16228;48.800;9.002;2023-05-02T13:37:33;16.23;;;12.73;;
211;SDS011;16228;48.800;9.002;2023-05-02T13:40:01;16.10;;;14.70;;
211;SDS011;16228;48.800;9.002;2023-05-02T13:42:29;14.23;;;12.83;;
211;SDS011;16228;48.800;9.002;2023-05-02T13:44:56;13.83;;;12.63;;
211;SDS011;16228;48.800;9.002;2023-05-02T13:47:22;15.03;;;12.53;;
211;SDS011;16228;48.800;9.002;2023-05-02T13:49:50;14.63;;;12.20;;
211;SDS011;16228;48.800;9.002;2023-05-02T13:52:17;11.13;;;10.17;;
211;SDS011;16228;48.800;9.002;2023-05-02T13:54:44;11.13;;;10.13;;
211;SDS011;16228;48.800;9.002;2023-05-02T13:57:12;11.00;;;9.87;;
211;SDS011;16228;48.800;9.002;2023-05-02T13:59:39;13.07;;;11.77;;
211;SDS011;16228;48.800;9.002;2023-05-02T14:02:06;12.87;;;11.60;;
211;SDS011;16228;48.800;9.002;2023-05-02T14:04:33;14.07;;;12.67;;
211;SDS011;16228;48.800;9.002;2023-05-02T14:07:00;14.23;;;12.87;;
211;SDS011;16228;48.800;9.002;2023-05-02T14:09:27;12.13;;;10.83;;
211;SDS011;16228;48.800;9.002;2023-05-02T14:11:54;12.43;;;11.13;;
211;SDS011;16228;48.800;9.002;2023-05-02T14:14:24;11.27;;;10.17;;
211;SDS011;16228;48.800;9.002;2023-05-02T14:16:51;14.00;;;10.33;;
211;SDS011;16228;48.800;9.002;2023-05-02T14:19:18;10.87;;;9.73;;
211;SDS011;16228;48.800;9.002;2023-05-02T14:21:45;11.10;;;8.80;;
211;SDS011;16228;48.800;9.002;2023-05-02T14:24:12;11.13;;;9.73;;
211;SDS011;16228;48.800;9.002;2023-05-02T14:26:40;11.43;;;10.33;;
211;SDS011;16228;48.800;9.002;2023-05-02T14:29:07;10.70;;;9.53;;
211;SDS011;16228;48.800;9.002;2023-05-02T14:31:35;10.13;;;9.10;;
211;SDS011;16228;48.800;9.002;2023-05-02T14:34:02;12.20;;;10.80;;
211;SDS011;16228;48.800;9.002;2023-05-02T14:36:29;11.90;;;9.67;;
211;SDS011;16228;48.800;9.002;2023-05-02T14:38:56;9.90;;;8.80;;
211;SDS011;16228;48.800;9.002;2023-05-02T14:41:24;8.10;;;7.27;;
211;SDS011;16228;48.800;9.002;2023-05-02T14:43:51;11.97;;;9.43;;
211;SDS011;16228;48.800;9.002;2023-05-02T14:46:18;10.37;;;9.37;;
211;SDS011;16228;48.800;9.002;2023-05-02T14:48:47;10.67;;;9.57;;
211;SDS011;16228;48.800;9.002;2023-05-02T14:51:14;10.30;;;9.30;;
211;SDS011;16228;48.800;9.002;2023-05-02T14:53:41;8.73;;;7.83;;
211;SDS011;16228;48.800;9.002;2023-05-02T14:56:10;10.80;;;9.70;;
211;SDS011;16228;48.800;9.002;2023-05-02T14:58:38;9.93;;;8.90;;
211;SDS011;16228;48.800;9.002;2023-05-02T15:01:05;10.87;;;8.77;;
211;SDS011;16228;48.800;9.002;2023-05-02T15:03:40;10.20;;;7.63;;
211;SDS011;16228;48.800;9.002;2023-05-02T15:06:08;10.23;;;8.33;;
211;SDS011;16228;48.800;9.002;2023-05-02T15:08:35;8.87;;;7.97;;
211;SDS011;16228;48.800;9.002;2023-05-02T15:11:02;9.50;;;8.43;;
211;SDS011;16228;48.800;9.002;2023-05-02T15:13:29;9.17;;;8.07;;
211;SDS011;16228;48.800;9.002;2023-05-02T15:15:56;9.33;;;7.40;;